createdAt,value
2019-04-29T00:02:17.425Z,4.14
2019-04-29T00:04:46.994Z,4.13
2019-04-29T00:07:16.491Z,4.10
2019-04-29T00:09:46.117Z,4.17
2019-04-29T00:12:16.149Z,4.30
2019-04-29T00:14:47.274Z,4.19
2019-04-29T00:17:21.082Z,4.32
2019-04-29T00:19:55.063Z,4.31
2019-04-29T00:22:24.608Z,4.29
2019-04-29T00:24:54.016Z,4.30
2019-04-29T00:27:23.609Z,4.40
2019-04-29T00:29:53.075Z,4.23
2019-04-29T00:32:22.593Z,4.12
2019-04-29T00:34:52.053Z,4.12
2019-04-29T00:37:34.883Z,4.14
2019-04-29T00:40:22.821Z,4.12
2019-04-29T00:42:54.012Z,4.16
2019-04-29T00:45:23.867Z,4.14
2019-04-29T00:47:53.335Z,4.12
2019-04-29T00:50:22.894Z,4.12
2019-04-29T00:52:53.014Z,4.19
2019-04-29T00:55:30.028Z,4.14
2019-04-29T00:57:59.543Z,4.02
2019-04-29T01:00:34.039Z,4.17
2019-04-29T01:03:03.564Z,4.18
2019-04-29T01:05:33.035Z,4.17
2019-04-29T01:08:02.582Z,4.10
2019-04-29T01:10:32.179Z,4.31
2019-04-29T01:13:01.657Z,4.24
2019-04-29T01:15:31.135Z,4.15
2019-04-29T01:18:00.607Z,4.39
2019-04-29T01:20:30.354Z,4.32
2019-04-29T01:22:59.861Z,4.30
2019-04-29T01:25:29.322Z,4.45
2019-04-29T01:28:09.252Z,4.39
2019-04-29T01:31:01.574Z,4.43
2019-04-29T01:33:31.070Z,4.43
2019-04-29T01:36:05.104Z,4.30
2019-04-29T01:38:34.655Z,4.33
2019-04-29T01:41:06.081Z,4.14
2019-04-29T01:43:52.987Z,4.24
2019-04-29T01:46:22.514Z,4.48
2019-04-29T01:48:51.982Z,4.17
2019-04-29T01:51:21.464Z,4.12
2019-04-29T01:53:50.933Z,4.28
2019-04-29T01:56:20.585Z,4.23
2019-04-29T01:58:50.070Z,4.16
2019-04-29T02:01:19.699Z,4.03
2019-04-29T02:03:49.341Z,4.17
2019-04-29T02:06:18.876Z,4.35
2019-04-29T02:08:49.312Z,4.35
2019-04-29T02:11:18.869Z,4.32
2019-04-29T02:13:48.345Z,4.32
2019-04-29T02:16:17.817Z,4.11
2019-04-29T02:18:47.296Z,4.26
2019-04-29T02:21:16.773Z,4.35
2019-04-29T02:23:46.049Z,4.36
2019-04-29T02:26:15.515Z,4.28
2019-04-29T02:28:45.005Z,4.16
2019-04-29T02:31:32.218Z,4.16
2019-04-29T02:34:01.681Z,4.18
2019-04-29T02:36:31.148Z,4.11
2019-04-29T02:39:08.382Z,4.11
2019-04-29T02:41:39.571Z,4.02
2019-04-29T02:44:10.691Z,4.07
2019-04-29T02:46:40.201Z,4.04
2019-04-29T02:49:09.705Z,3.94
2019-04-29T02:51:46.413Z,3.99
2019-04-29T02:54:15.898Z,4.24
2019-04-29T02:56:47.316Z,3.98
2019-04-29T02:59:21.097Z,4.26
2019-04-29T03:02:08.187Z,4.18
2019-04-29T03:04:49.066Z,4.06
2019-04-29T03:07:18.607Z,3.99
2019-04-29T03:09:48.091Z,4.26
2019-04-29T03:12:18.691Z,4.39
2019-04-29T03:14:48.184Z,4.36
2019-04-29T03:17:18.867Z,4.13
2019-04-29T03:20:06.268Z,4.35
2019-04-29T03:22:36.717Z,4.39
2019-04-29T03:25:07.201Z,4.32
2019-04-29T03:27:36.682Z,4.28
2019-04-29T03:30:08.263Z,4.20
2019-04-29T03:32:37.756Z,4.28
2019-04-29T03:35:08.339Z,4.29
2019-04-29T03:37:37.797Z,4.17
2019-04-29T03:40:07.759Z,4.14
2019-04-29T03:42:37.280Z,4.04
2019-04-29T03:45:08.452Z,4.11
2019-04-29T03:47:37.930Z,4.29
2019-04-29T03:50:07.557Z,4.27
2019-04-29T03:52:37.045Z,4.40
2019-04-29T03:55:07.291Z,4.23
2019-04-29T03:57:37.863Z,4.12
2019-04-29T04:00:13.002Z,4.07
2019-04-29T04:02:44.128Z,4.04
2019-04-29T04:05:19.254Z,4.20
2019-04-29T04:07:53.335Z,4.19
2019-04-29T04:10:22.863Z,4.21
2019-04-29T04:12:52.322Z,4.27
2019-04-29T04:15:21.988Z,4.10
2019-04-29T04:17:53.090Z,4.06
2019-04-29T04:20:23.025Z,4.04
2019-04-29T04:22:53.013Z,4.30
2019-04-29T04:25:22.506Z,4.16
2019-04-29T04:27:51.990Z,4.26
2019-04-29T04:30:21.597Z,4.48
2019-04-29T04:32:51.109Z,4.53
2019-04-29T04:35:21.243Z,4.47
2019-04-29T04:37:50.714Z,4.57
2019-04-29T04:40:24.859Z,4.36
2019-04-29T04:42:54.328Z,4.29
2019-04-29T04:45:23.843Z,4.25
2019-04-29T04:47:53.427Z,4.69
2019-04-29T04:50:22.899Z,4.61
2019-04-29T04:52:52.419Z,4.50
2019-04-29T04:55:23.528Z,4.46
2019-04-29T04:57:53.045Z,4.78
2019-04-29T05:00:24.382Z,4.85
2019-04-29T05:02:53.898Z,4.65
2019-04-29T05:05:23.369Z,4.99
2019-04-29T05:07:52.858Z,4.88
2019-04-29T05:10:22.354Z,4.83
2019-04-29T05:12:51.838Z,5.27
2019-04-29T05:15:21.379Z,5.36
2019-04-29T05:17:53.149Z,5.41
2019-04-29T05:20:22.065Z,5.69
2019-04-29T05:23:00.243Z,5.69
2019-04-29T05:25:34.175Z,5.77
2019-04-29T05:28:04.346Z,6.12
2019-04-29T05:30:33.832Z,6.31
2019-04-29T05:33:03.298Z,6.36
2019-04-29T05:35:34.408Z,6.44
2019-04-29T05:38:11.550Z,6.23
2019-04-29T05:40:42.697Z,5.98
2019-04-29T05:43:13.834Z,5.66
2019-04-29T05:46:01.214Z,5.65
2019-04-29T05:48:31.994Z,5.99
2019-04-29T05:51:01.669Z,6.10
2019-04-29T05:53:32.829Z,6.21
2019-04-29T05:56:02.297Z,6.11
2019-04-29T05:58:32.900Z,5.82
2019-04-29T06:01:04.652Z,5.68
2019-04-29T06:03:38.014Z,5.82
2019-04-29T06:06:05.472Z,5.60
2019-04-29T06:08:39.331Z,5.80
2019-04-29T06:11:06.194Z,5.75
2019-04-29T06:13:35.672Z,5.61
2019-04-29T06:16:05.250Z,5.92
2019-04-29T06:18:34.726Z,6.18
2019-04-29T06:21:09.240Z,6.07
2019-04-29T06:23:35.458Z,6.20
2019-04-29T06:26:05.010Z,6.17
2019-04-29T06:28:34.603Z,6.14
2019-04-29T06:31:04.090Z,6.11
2019-04-29T06:33:33.565Z,6.23
2019-04-29T06:36:03.084Z,6.37
2019-04-29T06:38:32.542Z,6.83
2019-04-29T06:41:05.575Z,6.70
2019-04-29T06:43:33.230Z,6.84
2019-04-29T06:46:02.783Z,6.70
2019-04-29T06:48:32.299Z,6.72
2019-04-29T06:51:01.884Z,7.22
2019-04-29T06:53:31.393Z,6.90
2019-04-29T06:56:00.873Z,6.74
2019-04-29T06:58:32.604Z,6.61
2019-04-29T07:01:03.190Z,6.54
2019-04-29T07:03:32.818Z,6.81
2019-04-29T07:06:02.299Z,6.96
2019-04-29T07:08:31.779Z,6.69
2019-04-29T07:11:03.018Z,6.93
2019-04-29T07:13:32.587Z,7.05
2019-04-29T07:16:02.096Z,7.28
2019-04-29T07:18:31.571Z,7.35
2019-04-29T07:21:01.043Z,7.24
2019-04-29T07:23:30.566Z,7.27
2019-04-29T07:26:00.030Z,7.10
2019-04-29T07:28:29.834Z,6.75
2019-04-29T07:31:01.580Z,6.66
2019-04-29T07:33:30.580Z,6.63
2019-04-29T07:36:10.752Z,6.44
2019-04-29T07:38:41.069Z,6.33
2019-04-29T07:41:03.620Z,6.43
2019-04-29T07:43:33.168Z,6.35
2019-04-29T07:46:07.053Z,6.26
2019-04-29T07:48:41.321Z,6.15
2019-04-29T07:51:07.811Z,6.26
2019-04-29T07:53:44.731Z,6.67
2019-04-29T07:56:08.520Z,6.55
2019-04-29T07:58:38.006Z,6.41
2019-04-29T08:01:07.549Z,6.57
2019-04-29T08:03:37.067Z,6.55
2019-04-29T08:06:06.581Z,6.46
2019-04-29T08:08:36.319Z,6.45
2019-04-29T08:11:06.190Z,6.44
2019-04-29T08:13:36.608Z,6.56
2019-04-29T08:16:06.155Z,6.81
2019-04-29T08:18:35.638Z,7.17
2019-04-29T08:21:05.302Z,7.18
2019-04-29T08:23:41.233Z,7.31
2019-04-29T08:26:05.995Z,7.18
2019-04-29T08:28:35.458Z,7.22
2019-04-29T08:31:04.960Z,6.97
2019-04-29T08:33:34.511Z,7.01
2019-04-29T08:36:04.164Z,7.29
2019-04-29T08:38:33.655Z,7.52
2019-04-29T08:41:03.133Z,7.38
2019-04-29T08:43:42.930Z,7.04
2019-04-29T08:46:14.072Z,7.17
2019-04-29T08:48:45.889Z,7.00
2019-04-29T08:51:15.482Z,7.07
2019-04-29T08:53:44.969Z,7.43
2019-04-29T08:56:14.466Z,7.25
2019-04-29T08:58:48.776Z,7.46
2019-04-29T09:01:15.214Z,7.93
2019-04-29T09:03:44.697Z,8.09
2019-04-29T09:06:14.189Z,8.06
2019-04-29T09:08:54.460Z,8.72
2019-04-29T09:11:14.871Z,8.79
2019-04-29T09:13:44.348Z,8.57
2019-04-29T09:16:13.847Z,8.33
2019-04-29T09:18:43.358Z,9.02
2019-04-29T09:21:12.882Z,8.95
2019-04-29T09:23:42.406Z,9.02
2019-04-29T09:26:16.374Z,9.54
2019-04-29T09:28:45.854Z,9.38
2019-04-29T09:31:16.028Z,9.58
2019-04-29T09:33:49.268Z,9.60
2019-04-29T09:36:16.738Z,9.92
2019-04-29T09:38:46.245Z,9.95
2019-04-29T09:41:21.568Z,9.35
2019-04-29T09:43:52.676Z,9.38
2019-04-29T09:46:23.972Z,9.71
2019-04-29T09:48:54.890Z,9.81
2019-04-29T09:51:27.973Z,9.12
2019-04-29T09:53:55.561Z,8.72
2019-04-29T09:56:25.053Z,9.05
2019-04-29T09:58:56.167Z,8.70
2019-04-29T10:01:27.289Z,8.63
2019-04-29T10:04:02.064Z,8.38
2019-04-29T10:06:33.262Z,8.52
2019-04-29T10:09:02.812Z,8.73
2019-04-29T10:11:32.288Z,8.95
2019-04-29T10:14:01.885Z,9.68
2019-04-29T10:16:44.983Z,10.23
2019-04-29T10:19:31.953Z,10.76
2019-04-29T10:22:01.514Z,11.37
2019-04-29T10:24:30.991Z,11.20
2019-04-29T10:27:00.546Z,9.70
2019-04-29T10:29:31.699Z,9.68
2019-04-29T10:32:02.414Z,9.38
2019-04-29T10:34:33.086Z,9.28
2019-04-29T10:37:02.546Z,9.19
2019-04-29T10:39:36.066Z,9.06
2019-04-29T10:42:07.584Z,9.36
2019-04-29T10:44:47.747Z,8.91
2019-04-29T10:47:25.303Z,8.66
2019-04-29T10:49:56.538Z,8.59
2019-04-29T10:52:26.427Z,8.81
2019-04-29T10:54:56.731Z,8.47
2019-04-29T10:57:29.319Z,8.32
2019-04-29T11:00:01.115Z,7.97
2019-04-29T11:02:32.392Z,7.31
2019-04-29T11:05:11.874Z,6.93
2019-04-29T11:07:42.504Z,7.18
2019-04-29T11:10:25.031Z,7.24
2019-04-29T11:12:48.390Z,7.36
2019-04-29T11:15:19.630Z,7.46
2019-04-29T11:17:58.528Z,6.96
2019-04-29T11:20:21.637Z,7.51
2019-04-29T11:23:09.256Z,8.12
2019-04-29T11:25:36.880Z,8.11
2019-04-29T11:28:06.516Z,7.94
2019-04-29T11:30:39.530Z,7.84
2019-04-29T11:33:12.846Z,7.87
2019-04-29T11:35:43.994Z,7.90
2019-04-29T11:38:14.849Z,7.89
2019-04-29T11:40:44.672Z,7.85
2019-04-29T11:43:15.431Z,7.84
2019-04-29T11:45:46.500Z,8.32
2019-04-29T11:48:16.019Z,8.39
2019-04-29T11:50:49.630Z,8.05
2019-04-29T11:53:16.528Z,7.85
2019-04-29T11:55:46.437Z,7.56
2019-04-29T11:58:29.419Z,7.49
2019-04-29T12:00:58.906Z,7.48
2019-04-29T12:03:32.746Z,7.61
2019-04-29T12:06:03.888Z,7.68
2019-04-29T12:08:33.383Z,7.04
2019-04-29T12:11:06.962Z,7.09
2019-04-29T12:13:38.767Z,7.17
2019-04-29T12:16:10.782Z,7.38
2019-04-29T12:18:41.902Z,7.51
2019-04-29T12:21:13.086Z,7.50
2019-04-29T12:23:42.570Z,7.13
2019-04-29T12:26:13.697Z,7.03
2019-04-29T12:28:44.552Z,6.94
2019-04-29T12:31:25.615Z,7.09
2019-04-29T12:33:56.824Z,7.46
2019-04-29T12:36:27.616Z,7.51
2019-04-29T12:38:58.763Z,7.37
2019-04-29T12:41:31.336Z,7.80
2019-04-29T12:44:05.523Z,7.56
2019-04-29T12:46:39.041Z,7.72
2019-04-29T12:49:13.475Z,7.85
2019-04-29T12:51:39.814Z,7.84
2019-04-29T12:54:09.297Z,8.40
2019-04-29T12:56:43.091Z,8.29
2019-04-29T12:59:12.220Z,8.18
2019-04-29T13:01:51.393Z,8.00
2019-04-29T13:04:32.895Z,7.68
2019-04-29T13:07:19.924Z,7.60
2019-04-29T13:09:51.142Z,7.29
2019-04-29T13:12:20.669Z,7.01
2019-04-29T13:15:03.020Z,6.42
2019-04-29T13:17:39.544Z,6.48
2019-04-29T13:20:11.700Z,6.45
2019-04-29T13:22:41.508Z,6.64
2019-04-29T13:25:15.536Z,6.78
2019-04-29T13:27:43.146Z,7.38
2019-04-29T13:30:16.200Z,8.00
2019-04-29T13:32:44.581Z,8.25
2019-04-29T13:35:14.204Z,8.02
2019-04-29T13:37:43.695Z,8.18
2019-04-29T13:40:13.474Z,8.60
2019-04-29T13:42:48.481Z,8.67
2019-04-29T13:45:20.131Z,8.73
2019-04-29T13:47:56.676Z,8.86
2019-04-29T13:50:39.572Z,9.13
2019-04-29T13:53:05.288Z,9.10
2019-04-29T13:55:47.792Z,9.38
2019-04-29T13:58:06.147Z,9.49
2019-04-29T14:00:55.773Z,8.86
2019-04-29T14:03:31.663Z,8.61
2019-04-29T14:06:04.164Z,8.01
2019-04-29T14:08:32.433Z,7.43
2019-04-29T14:11:01.923Z,7.46
2019-04-29T14:13:31.421Z,7.34
2019-04-29T14:16:01.384Z,6.88
2019-04-29T14:18:30.882Z,7.05
2019-04-29T14:21:00.403Z,7.13
2019-04-29T14:23:29.979Z,7.29
2019-04-29T14:25:59.798Z,7.08
2019-04-29T14:28:29.269Z,7.73
2019-04-29T14:30:58.736Z,7.76
2019-04-29T14:33:29.858Z,7.36
2019-04-29T14:36:00.977Z,7.62
2019-04-29T14:38:30.493Z,7.74
2019-04-29T14:41:00.021Z,7.67
2019-04-29T14:43:50.612Z,7.80
2019-04-29T14:46:19.798Z,7.61
2019-04-29T14:48:53.988Z,7.40
2019-04-29T14:51:27.721Z,7.49
2019-04-29T14:53:56.889Z,7.57
2019-04-29T14:56:26.346Z,7.45
2019-04-29T14:59:06.548Z,7.61
2019-04-29T15:01:27.028Z,7.77
2019-04-29T15:03:56.379Z,7.62
2019-04-29T15:06:28.842Z,7.57
2019-04-29T15:08:57.118Z,7.79
2019-04-29T15:11:32.110Z,7.77
2019-04-29T15:14:23.183Z,7.67
2019-04-29T15:16:51.329Z,7.53
2019-04-29T15:19:38.284Z,7.59
2019-04-29T15:22:09.368Z,7.75
2019-04-29T15:24:38.842Z,8.14
2019-04-29T15:27:08.362Z,8.60
2019-04-29T15:29:37.852Z,8.74
2019-04-29T15:32:07.386Z,8.39
2019-04-29T15:34:39.858Z,8.07
2019-04-29T15:37:08.096Z,8.20
2019-04-29T15:39:40.775Z,8.06
2019-04-29T15:42:09.266Z,8.13
2019-04-29T15:44:38.875Z,7.75
2019-04-29T15:47:08.360Z,7.48
2019-04-29T15:49:37.871Z,7.40
2019-04-29T15:52:07.376Z,7.09
2019-04-29T15:54:36.910Z,6.91
2019-04-29T15:57:09.252Z,6.94
2019-04-29T15:59:48.721Z,6.92
2019-04-29T16:02:09.271Z,6.66
2019-04-29T16:04:46.966Z,6.76
2019-04-29T16:07:19.079Z,6.71
2019-04-29T16:10:20.439Z,6.76
2019-04-29T16:12:50.963Z,6.68
2019-04-29T16:15:18.856Z,6.82
2019-04-29T16:17:48.387Z,6.54
2019-04-29T16:20:17.849Z,6.60
2019-04-29T16:22:48.057Z,6.48
2019-04-29T16:25:17.534Z,6.53
2019-04-29T16:27:52.936Z,6.42
2019-04-29T16:30:19.250Z,6.27
2019-04-29T16:32:48.720Z,6.05
2019-04-29T16:35:23.676Z,6.02
2019-04-29T16:37:49.578Z,6.23
2019-04-29T16:40:19.201Z,6.12
2019-04-29T16:42:50.414Z,6.33
2019-04-29T16:45:21.521Z,6.56
2019-04-29T16:47:51.007Z,6.72
2019-04-29T16:50:20.497Z,6.78
2019-04-29T16:52:50.176Z,6.59
2019-04-29T16:55:19.694Z,6.76
2019-04-29T16:57:49.221Z,6.78
2019-04-29T17:00:20.773Z,6.69
2019-04-29T17:02:50.339Z,6.62
2019-04-29T17:05:19.882Z,6.63
2019-04-29T17:07:49.388Z,6.55
2019-04-29T17:10:28.950Z,6.41
2019-04-29T17:12:58.462Z,6.58
2019-04-29T17:15:28.280Z,6.51
2019-04-29T17:17:57.791Z,6.43
2019-04-29T17:20:27.262Z,6.42
2019-04-29T17:22:56.765Z,6.47
2019-04-29T17:25:26.256Z,6.47
2019-04-29T17:28:12.105Z,6.71
2019-04-29T17:30:46.743Z,6.59
2019-04-29T17:33:27.736Z,6.65
2019-04-29T17:35:52.805Z,6.70
2019-04-29T17:38:22.307Z,6.57
2019-04-29T17:40:51.788Z,6.53
2019-04-29T17:43:23.985Z,6.53
2019-04-29T17:46:03.935Z,6.50
2019-04-29T17:48:40.707Z,6.46
2019-04-29T17:51:11.908Z,6.44
2019-04-29T17:53:58.287Z,6.35
2019-04-29T17:56:45.086Z,6.29
2019-04-29T17:59:29.640Z,6.32
2019-04-29T18:02:01.926Z,6.41
2019-04-29T18:04:36.183Z,6.33
2019-04-29T18:07:12.251Z,6.38
2019-04-29T18:09:43.017Z,6.48
2019-04-29T18:12:14.889Z,6.45
2019-04-29T18:14:44.762Z,6.57
2019-04-29T18:17:24.140Z,6.64
2019-04-29T18:19:51.111Z,6.57
2019-04-29T18:22:25.083Z,6.47
2019-04-29T18:24:56.190Z,6.46
2019-04-29T18:27:34.461Z,6.48
2019-04-29T18:30:07.208Z,6.42
2019-04-29T18:32:42.100Z,6.38
2019-04-29T18:35:08.153Z,6.38
2019-04-29T18:37:38.497Z,6.60
2019-04-29T18:40:08.437Z,6.31
2019-04-29T18:42:38.479Z,6.19
2019-04-29T18:45:09.307Z,6.26
2019-04-29T18:47:39.028Z,6.20
2019-04-29T18:50:09.058Z,6.27
2019-04-29T18:52:38.534Z,6.23
2019-04-29T18:55:08.162Z,6.31
2019-04-29T18:57:37.689Z,6.15
2019-04-29T19:00:12.703Z,6.25
2019-04-29T19:02:47.390Z,6.40
2019-04-29T19:05:17.234Z,6.27
2019-04-29T19:07:54.667Z,6.27
2019-04-29T19:10:18.775Z,6.17
2019-04-29T19:12:57.524Z,6.12
2019-04-29T19:15:19.687Z,6.32
2019-04-29T19:17:58.730Z,6.17
2019-04-29T19:20:20.756Z,6.29
2019-04-29T19:22:59.642Z,6.18
2019-04-29T19:25:21.905Z,5.99
2019-04-29T19:27:51.385Z,5.96
2019-04-29T19:30:23.067Z,5.86
2019-04-29T19:32:53.947Z,5.84
2019-04-29T19:35:25.222Z,5.86
2019-04-29T19:37:54.747Z,5.72
2019-04-29T19:40:25.801Z,5.79
2019-04-29T19:42:55.867Z,5.75
2019-04-29T19:45:25.374Z,5.75
2019-04-29T19:47:55.817Z,5.74
2019-04-29T19:50:25.730Z,5.65
2019-04-29T19:52:55.487Z,5.66
2019-04-29T19:55:25.247Z,5.86
2019-04-29T19:57:56.767Z,5.96
2019-04-29T20:00:29.221Z,5.64
2019-04-29T20:02:58.665Z,5.71
2019-04-29T20:05:36.836Z,5.78
2019-04-29T20:08:04.752Z,5.78
2019-04-29T20:10:42.422Z,5.87
2019-04-29T20:13:06.855Z,5.75
2019-04-29T20:15:38.653Z,5.94
2019-04-29T20:18:33.885Z,6.01
2019-04-29T20:21:08.713Z,5.95
2019-04-29T20:23:29.882Z,5.92
2019-04-29T20:26:12.786Z,5.73
2019-04-29T20:28:30.907Z,5.71
2019-04-29T20:31:15.440Z,5.66
2019-04-29T20:33:32.264Z,5.80
2019-04-29T20:36:02.576Z,5.82
2019-04-29T20:38:35.002Z,5.73
2019-04-29T20:41:06.231Z,5.65
2019-04-29T20:43:35.883Z,5.64
2019-04-29T20:46:05.832Z,5.67
2019-04-29T20:48:37.151Z,5.74
2019-04-29T20:51:13.308Z,5.83
2019-04-29T20:53:40.277Z,5.74
2019-04-29T20:56:12.761Z,5.70
2019-04-29T20:58:41.169Z,5.63
2019-04-29T21:01:13.845Z,5.59
2019-04-29T21:03:46.245Z,5.60
2019-04-29T21:06:15.616Z,5.65
2019-04-29T21:08:51.184Z,5.69
2019-04-29T21:11:21.137Z,5.77
2019-04-29T21:13:57.259Z,5.66
2019-04-29T21:16:30.695Z,5.69
2019-04-29T21:19:01.560Z,5.71
2019-04-29T21:21:31.047Z,5.63
2019-04-29T21:24:00.661Z,5.71
2019-04-29T21:26:30.151Z,5.71
2019-04-29T21:28:59.625Z,5.61
2019-04-29T21:31:30.354Z,5.51
2019-04-29T21:33:59.920Z,5.70
2019-04-29T21:36:32.243Z,5.54
2019-04-29T21:39:06.083Z,5.55
2019-04-29T21:41:36.351Z,5.50
2019-04-29T21:44:07.110Z,5.54
2019-04-29T21:46:37.344Z,5.58
2019-04-29T21:49:11.601Z,5.71
2019-04-29T21:51:41.715Z,5.59
2019-04-29T21:54:09.565Z,5.54
2019-04-29T21:56:46.467Z,5.62
2019-04-29T21:59:12.414Z,5.58
2019-04-29T22:01:41.949Z,5.77
2019-04-29T22:04:11.447Z,5.79
2019-04-29T22:06:40.917Z,5.72
2019-04-29T22:09:10.861Z,5.66
2019-04-29T22:11:43.579Z,5.59
2019-04-29T22:14:14.056Z,5.53
2019-04-29T22:16:47.634Z,5.61
2019-04-29T22:19:14.906Z,5.73
2019-04-29T22:21:45.922Z,5.73
2019-04-29T22:24:15.386Z,5.68
2019-04-29T22:26:45.150Z,5.68
2019-04-29T22:29:15.035Z,5.67
2019-04-29T22:31:45.866Z,5.73
2019-04-29T22:34:19.032Z,5.52
2019-04-29T22:36:48.034Z,5.64
2019-04-29T22:39:21.717Z,5.64
2019-04-29T22:41:52.383Z,5.52
2019-04-29T22:44:21.804Z,5.51
2019-04-29T22:46:51.246Z,5.58
2019-04-29T22:49:25.275Z,5.57
2019-04-29T22:51:54.634Z,5.58
2019-04-29T22:54:23.573Z,5.54
2019-04-29T22:56:56.020Z,5.60
2019-04-29T22:59:25.372Z,5.49
2019-04-29T23:01:55.657Z,5.57
2019-04-29T23:04:25.135Z,5.60
2019-04-29T23:06:54.627Z,5.47
2019-04-29T23:09:24.151Z,5.73
2019-04-29T23:11:55.598Z,5.66
2019-04-29T23:14:25.290Z,5.62
2019-04-29T23:16:55.572Z,5.69
2019-04-29T23:19:25.975Z,5.58
2019-04-29T23:21:57.114Z,5.55
2019-04-29T23:24:41.437Z,5.55
2019-04-29T23:27:11.534Z,5.50
2019-04-29T23:29:43.365Z,5.58
2019-04-29T23:32:15.191Z,5.65
2019-04-29T23:34:44.543Z,5.52
2019-04-29T23:37:14.089Z,5.59
2019-04-29T23:39:45.592Z,5.48
2019-04-29T23:42:16.287Z,5.44
2019-04-29T23:44:45.888Z,5.48
2019-04-29T23:47:15.826Z,5.55
2019-04-29T23:49:46.887Z,5.56
2019-04-29T23:52:17.936Z,5.49
2019-04-29T23:54:48.615Z,5.54
2019-04-29T23:57:23.661Z,5.58
